sensor_id;sensor_type;location;lat;lon;timestamp;pressure;altitude;pressure_sealevel;temperature;humidity
10992;BME280;5549;47.028;15.514;2024-02-26T00:01:39;95472.75;;;8.83;60.29
10992;BME280;5549;47.028;15.514;2024-02-26T00:04:07;95477.16;;;8.82;60.19
10992;BME280;5549;47.028;15.514;2024-02-26T00:06:42;95475.38;;;8.83;60.68
10992;BME280;5549;47.028;15.514;2024-02-26T00:09:10;95469.59;;;8.79;60.85
10992;BME280;5549;47.028;15.514;2024-02-26T00:11:41;95466.28;;;8.77;61.05
10992;BME280;5549;47.028;15.514;2024-02-26T00:14:09;95460.53;;;8.74;60.81
10992;BME280;5549;47.028;15.514;2024-02-26T00:16:41;95456.53;;;8.70;61.29
10992;BME280;5549;47.028;15.514;2024-02-26T00:19:13;95457.50;;;8.68;61.55
10992;BME280;5549;47.028;15.514;2024-02-26T00:21:43;95462.47;;;8.72;61.66
10992;BME280;5549;47.028;15.514;2024-02-26T00:24:13;95458.19;;;8.71;61.94
10992;BME280;5549;47.028;15.514;2024-02-26T00:26:43;95457.22;;;8.72;61.71
10992;BME280;5549;47.028;15.514;2024-02-26T00:29:13;95456.53;;;8.70;61.81
10992;BME280;5549;47.028;15.514;2024-02-26T00:31:42;95460.00;;;8.70;61.39
10992;BME280;5549;47.028;15.514;2024-02-26T00:34:12;95463.28;;;8.62;61.99
10992;BME280;5549;47.028;15.514;2024-02-26T00:36:40;95451.47;;;8.58;61.99
10992;BME280;5549;47.028;15.514;2024-02-26T00:39:11;95455.63;;;8.51;62.55
10992;BME280;5549;47.028;15.514;2024-02-26T00:41:40;95449.31;;;8.44;62.89
10992;BME280;5549;47.028;15.514;2024-02-26T00:44:07;95452.06;;;8.43;63.09
10992;BME280;5549;47.028;15.514;2024-02-26T00:46:35;95449.22;;;8.36;63.02
10992;BME280;5549;47.028;15.514;2024-02-26T00:49:04;95440.69;;;8.34;63.23
10992;BME280;5549;47.028;15.514;2024-02-26T00:51:33;95445.91;;;8.24;63.56
10992;BME280;5549;47.028;15.514;2024-02-26T00:54:03;95442.09;;;8.09;64.25
10992;BME280;5549;47.028;15.514;2024-02-26T00:56:33;95439.22;;;8.02;64.72
10992;BME280;5549;47.028;15.514;2024-02-26T00:59:00;95435.09;;;7.90;64.93
10992;BME280;5549;47.028;15.514;2024-02-26T01:01:28;95431.81;;;7.88;65.41
10992;BME280;5549;47.028;15.514;2024-02-26T01:03:56;95439.66;;;7.88;65.19
10992;BME280;5549;47.028;15.514;2024-02-26T01:06:27;95447.34;;;7.90;65.51
10992;BME280;5549;47.028;15.514;2024-02-26T01:08:54;95435.69;;;7.75;66.01
10992;BME280;5549;47.028;15.514;2024-02-26T01:11:22;95432.91;;;7.76;65.80
10992;BME280;5549;47.028;15.514;2024-02-26T01:13:52;95429.06;;;7.80;65.67
10992;BME280;5549;47.028;15.514;2024-02-26T01:16:22;95421.91;;;7.82;65.89
10992;BME280;5549;47.028;15.514;2024-02-26T01:18:50;95432.50;;;7.81;65.31
10992;BME280;5549;47.028;15.514;2024-02-26T01:21:20;95417.22;;;7.86;65.69
10992;BME280;5549;47.028;15.514;2024-02-26T01:23:49;95421.34;;;7.88;65.30
10992;BME280;5549;47.028;15.514;2024-02-26T01:26:16;95413.38;;;7.90;64.93
10992;BME280;5549;47.028;15.514;2024-02-26T01:28:46;95418.19;;;7.94;64.87
10992;BME280;5549;47.028;15.514;2024-02-26T01:31:13;95413.91;;;7.93;64.51
10992;BME280;5549;47.028;15.514;2024-02-26T01:33:42;95410.75;;;7.90;64.78
10992;BME280;5549;47.028;15.514;2024-02-26T01:36:10;95408.97;;;7.90;65.03
10992;BME280;5549;47.028;15.514;2024-02-26T01:38:38;95399.47;;;7.89;64.46
10992;BME280;5549;47.028;15.514;2024-02-26T01:41:09;95400.84;;;7.93;64.42
10992;BME280;5549;47.028;15.514;2024-02-26T01:43:39;95398.81;;;7.78;65.00
10992;BME280;5549;47.028;15.514;2024-02-26T01:46:06;95400.59;;;7.77;65.10
10992;BME280;5549;47.028;15.514;2024-02-26T01:48:40;95398.66;;;7.79;64.71
10992;BME280;5549;47.028;15.514;2024-02-26T01:51:11;95393.31;;;7.71;65.33
10992;BME280;5549;47.028;15.514;2024-02-26T01:53:42;95393.19;;;7.72;65.03
10992;BME280;5549;47.028;15.514;2024-02-26T01:56:11;95388.78;;;7.73;64.72
10992;BME280;5549;47.028;15.514;2024-02-26T01:58:41;95383.41;;;7.75;64.52
10992;BME280;5549;47.028;15.514;2024-02-26T02:01:10;95383.44;;;7.65;65.01
10992;BME280;5549;47.028;15.514;2024-02-26T02:03:41;95379.44;;;7.61;65.53
10992;BME280;5549;47.028;15.514;2024-02-26T02:06:12;95377.63;;;7.71;64.55
10992;BME280;5549;47.028;15.514;2024-02-26T02:08:42;95381.22;;;7.70;64.52
10992;BME280;5549;47.028;15.514;2024-02-26T02:11:11;95375.59;;;7.65;64.40
10992;BME280;5549;47.028;15.514;2024-02-26T02:13:43;95375.56;;;7.75;64.42
10992;BME280;5549;47.028;15.514;2024-02-26T02:16:13;95373.50;;;7.78;63.66
10992;BME280;5549;47.028;15.514;2024-02-26T02:18:43;95375.16;;;7.79;63.50
10992;BME280;5549;47.028;15.514;2024-02-26T02:21:15;95384.50;;;7.82;62.94
10992;BME280;5549;47.028;15.514;2024-02-26T02:23:44;95385.75;;;7.78;63.35
10992;BME280;5549;47.028;15.514;2024-02-26T02:26:13;95380.94;;;7.73;63.15
10992;BME280;5549;47.028;15.514;2024-02-26T02:28:41;95380.13;;;7.72;64.04
10992;BME280;5549;47.028;15.514;2024-02-26T02:31:09;95371.19;;;7.65;63.43
10992;BME280;5549;47.028;15.514;2024-02-26T02:33:40;95368.72;;;7.64;63.72
10992;BME280;5549;47.028;15.514;2024-02-26T02:36:08;95378.19;;;7.65;64.13
10992;BME280;5549;47.028;15.514;2024-02-26T02:38:49;95381.22;;;7.70;63.82
10992;BME280;5549;47.028;15.514;2024-02-26T02:41:17;95378.75;;;7.68;64.51
10992;BME280;5549;47.028;15.514;2024-02-26T02:43:48;95371.31;;;7.64;64.25
10992;BME280;5549;47.028;15.514;2024-02-26T02:46:18;95368.88;;;7.53;64.50
10992;BME280;5549;47.028;15.514;2024-02-26T02:48:48;95372.16;;;7.55;64.55
10992;BME280;5549;47.028;15.514;2024-02-26T02:51:19;95365.84;;;7.57;64.89
10992;BME280;5549;47.028;15.514;2024-02-26T02:53:51;95371.88;;;7.58;64.72
10992;BME280;5549;47.028;15.514;2024-02-26T02:56:21;95372.16;;;7.55;64.97
10992;BME280;5549;47.028;15.514;2024-02-26T02:58:51;95369.56;;;7.55;64.74
10992;BME280;5549;47.028;15.514;2024-02-26T03:01:19;95366.94;;;7.64;64.53
10992;BME280;5549;47.028;15.514;2024-02-26T03:03:46;95366.91;;;7.74;63.71
10992;BME280;5549;47.028;15.514;2024-02-26T03:06:14;95367.59;;;7.76;63.73
10992;BME280;5549;47.028;15.514;2024-02-26T03:08:44;95361.00;;;7.72;62.94
10992;BME280;5549;47.028;15.514;2024-02-26T03:11:16;95359.06;;;7.74;62.77
10992;BME280;5549;47.028;15.514;2024-02-26T03:13:49;95363.59;;;7.72;62.86
10992;BME280;5549;47.028;15.514;2024-02-26T03:16:24;95362.25;;;7.68;63.22
10992;BME280;5549;47.028;15.514;2024-02-26T03:18:55;95363.22;;;7.67;62.64
10992;BME280;5549;47.028;15.514;2024-02-26T03:21:24;95366.38;;;7.61;62.79
10992;BME280;5549;47.028;15.514;2024-02-26T03:23:55;95364.03;;;7.58;63.33
10992;BME280;5549;47.028;15.514;2024-02-26T03:26:25;95356.78;;;7.52;63.73
10992;BME280;5549;47.028;15.514;2024-02-26T03:28:54;95366.00;;;7.46;63.62
10992;BME280;5549;47.028;15.514;2024-02-26T03:31:24;95348.53;;;7.37;64.59
10992;BME280;5549;47.028;15.514;2024-02-26T03:33:55;95346.34;;;7.42;63.48
10992;BME280;5549;47.028;15.514;2024-02-26T03:36:23;95343.31;;;7.47;63.32
10992;BME280;5549;47.028;15.514;2024-02-26T03:38:53;95336.16;;;7.49;62.71
10992;BME280;5549;47.028;15.514;2024-02-26T03:41:22;95336.97;;;7.49;64.03
10992;BME280;5549;47.028;15.514;2024-02-26T03:43:55;95329.41;;;7.46;63.53
10992;BME280;5549;47.028;15.514;2024-02-26T03:46:23;95332.44;;;7.42;63.92
10992;BME280;5549;47.028;15.514;2024-02-26T03:48:50;95334.38;;;7.39;64.63
10992;BME280;5549;47.028;15.514;2024-02-26T03:51:20;95337.41;;;7.45;63.89
10992;BME280;5549;47.028;15.514;2024-02-26T03:53:47;95334.78;;;7.45;63.87
10992;BME280;5549;47.028;15.514;2024-02-26T03:56:15;95338.34;;;7.44;63.93
10992;BME280;5549;47.028;15.514;2024-02-26T03:58:45;95333.13;;;7.44;63.44
10992;BME280;5549;47.028;15.514;2024-02-26T04:01:14;95331.75;;;7.39;63.70
10992;BME280;5549;47.028;15.514;2024-02-26T04:03:42;95334.25;;;7.41;64.00
10992;BME280;5549;47.028;15.514;2024-02-26T04:06:10;95333.41;;;7.40;63.78
10992;BME280;5549;47.028;15.514;2024-02-26T04:08:41;95332.31;;;7.43;63.47
10992;BME280;5549;47.028;15.514;2024-02-26T04:11:09;95326.94;;;7.45;63.86
10992;BME280;5549;47.028;15.514;2024-02-26T04:13:41;95329.56;;;7.45;63.62
10992;BME280;5549;47.028;15.514;2024-02-26T04:16:13;95337.41;;;7.45;62.92
10992;BME280;5549;47.028;15.514;2024-02-26T04:18:44;95329.56;;;7.35;62.95
10992;BME280;5549;47.028;15.514;2024-02-26T04:21:12;95336.59;;;7.34;63.05
10992;BME280;5549;47.028;15.514;2024-02-26T04:23:42;95332.59;;;7.30;63.21
10992;BME280;5549;47.028;15.514;2024-02-26T04:26:11;95336.88;;;7.31;62.61
10992;BME280;5549;47.028;15.514;2024-02-26T04:28:41;95331.91;;;7.28;63.08
10992;BME280;5549;47.028;15.514;2024-02-26T04:31:11;95331.78;;;7.20;63.55
10992;BME280;5549;47.028;15.514;2024-02-26T04:33:40;95334.41;;;7.20;63.40
10992;BME280;5549;47.028;15.514;2024-02-26T04:36:13;95338.09;;;7.18;63.56
10992;BME280;5549;47.028;15.514;2024-02-26T04:38:42;95333.56;;;7.20;62.95
10992;BME280;5549;47.028;15.514;2024-02-26T04:41:10;95326.56;;;7.20;62.17
10992;BME280;5549;47.028;15.514;2024-02-26T04:43:40;95337.81;;;7.21;62.66
10992;BME280;5549;47.028;15.514;2024-02-26T04:46:10;95339.63;;;7.20;63.06
10992;BME280;5549;47.028;15.514;2024-02-26T04:48:41;95332.75;;;7.19;61.97
10992;BME280;5549;47.028;15.514;2024-02-26T04:51:11;95331.09;;;7.18;61.94
10992;BME280;5549;47.028;15.514;2024-02-26T04:53:39;95331.78;;;7.11;62.79
10992;BME280;5549;47.028;15.514;2024-02-26T04:56:14;95328.22;;;7.02;63.57
10992;BME280;5549;47.028;15.514;2024-02-26T04:58:44;95334.81;;;7.06;63.27
10992;BME280;5549;47.028;15.514;2024-02-26T05:01:11;95329.38;;;6.50;66.83
10992;BME280;5549;47.028;15.514;2024-02-26T05:03:40;95332.28;;;6.75;65.36
10992;BME280;5549;47.028;15.514;2024-02-26T05:06:08;95327.63;;;6.89;65.08
10992;BME280;5549;47.028;15.514;2024-02-26T05:08:38;95332.84;;;6.89;64.92
10992;BME280;5549;47.028;15.514;2024-02-26T05:11:08;95325.72;;;6.91;64.85
10992;BME280;5549;47.028;15.514;2024-02-26T05:13:38;95327.09;;;6.85;65.21
10992;BME280;5549;47.028;15.514;2024-02-26T05:16:06;95330.59;;;6.55;65.93
10992;BME280;5549;47.028;15.514;2024-02-26T05:18:35;95326.22;;;6.65;66.12
10992;BME280;5549;47.028;15.514;2024-02-26T05:21:04;95328.03;;;6.84;65.53
10992;BME280;5549;47.028;15.514;2024-02-26T05:23:34;95331.38;;;6.96;64.38
10992;BME280;5549;47.028;15.514;2024-02-26T05:26:04;95332.19;;;6.96;64.15
10992;BME280;5549;47.028;15.514;2024-02-26T05:28:32;95326.84;;;6.98;63.94
10992;BME280;5549;47.028;15.514;2024-02-26T05:31:00;95322.13;;;6.92;64.53
10992;BME280;5549;47.028;15.514;2024-02-26T05:33:30;95324.09;;;6.99;64.15
10992;BME280;5549;47.028;15.514;2024-02-26T05:35:57;95318.59;;;7.02;64.02
10992;BME280;5549;47.028;15.514;2024-02-26T05:38:31;95310.91;;;7.01;64.58
10992;BME280;5549;47.028;15.514;2024-02-26T05:41:01;95320.38;;;7.02;64.66
10992;BME280;5549;47.028;15.514;2024-02-26T05:43:31;95319.44;;;7.03;63.61
10992;BME280;5549;47.028;15.514;2024-02-26T05:46:00;95323.81;;;7.02;63.20
10992;BME280;5549;47.028;15.514;2024-02-26T05:48:29;95328.63;;;7.07;63.75
10992;BME280;5549;47.028;15.514;2024-02-26T05:51:00;95329.59;;;7.06;63.34
10992;BME280;5549;47.028;15.514;2024-02-26T05:53:32;95332.06;;;7.07;63.60
10992;BME280;5549;47.028;15.514;2024-02-26T05:56:02;95331.38;;;7.05;64.07
10992;BME280;5549;47.028;15.514;2024-02-26T05:58:32;95331.94;;;7.09;63.75
10992;BME280;5549;47.028;15.514;2024-02-26T06:01:00;95330.97;;;7.10;63.36
10992;BME280;5549;47.028;15.514;2024-02-26T06:03:30;95337.16;;;7.09;62.90
10992;BME280;5549;47.028;15.514;2024-02-26T06:05:57;95341.41;;;7.10;63.35
10992;BME280;5549;47.028;15.514;2024-02-26T06:08:25;95348.00;;;7.14;62.93
10992;BME280;5549;47.028;15.514;2024-02-26T06:10:56;95344.84;;;7.11;63.69
10992;BME280;5549;47.028;15.514;2024-02-26T06:13:26;95341.94;;;7.14;63.39
10992;BME280;5549;47.028;15.514;2024-02-26T06:15:56;95349.66;;;7.15;63.35
10992;BME280;5549;47.028;15.514;2024-02-26T06:18:26;95353.50;;;7.21;62.94
10992;BME280;5549;47.028;15.514;2024-02-26T06:20:54;95356.38;;;7.27;62.88
10992;BME280;5549;47.028;15.514;2024-02-26T06:23:22;95361.47;;;7.29;63.24
10992;BME280;5549;47.028;15.514;2024-02-26T06:25:52;95359.25;;;7.34;63.46
10992;BME280;5549;47.028;15.514;2024-02-26T06:28:21;95360.50;;;7.39;62.81
10992;BME280;5549;47.028;15.514;2024-02-26T06:30:49;95363.50;;;7.45;63.52
10992;BME280;5549;47.028;15.514;2024-02-26T06:33:18;95354.56;;;7.47;63.46
10992;BME280;5549;47.028;15.514;2024-02-26T06:35:46;95361.59;;;7.47;63.69
10992;BME280;5549;47.028;15.514;2024-02-26T06:38:13;95356.50;;;7.55;63.41
10992;BME280;5549;47.028;15.514;2024-02-26T06:40:44;95362.13;;;7.60;63.35
10992;BME280;5549;47.028;15.514;2024-02-26T06:43:11;95366.91;;;7.74;62.78
10992;BME280;5549;47.028;15.514;2024-02-26T06:45:43;95371.16;;;7.85;62.55
10992;BME280;5549;47.028;15.514;2024-02-26T06:48:10;95377.72;;;7.98;62.09
10992;BME280;5549;47.028;15.514;2024-02-26T06:50:40;95373.38;;;8.17;61.62
10992;BME280;5549;47.028;15.514;2024-02-26T06:53:11;95376.34;;;8.41;61.30
10992;BME280;5549;47.028;15.514;2024-02-26T06:55:38;95378.88;;;8.60;61.21
10992;BME280;5549;47.028;15.514;2024-02-26T06:58:09;95378.22;;;8.86;60.52
10992;BME280;5549;47.028;15.514;2024-02-26T07:00:39;95381.09;;;9.10;60.11
10992;BME280;5549;47.028;15.514;2024-02-26T07:03:08;95376.38;;;9.31;58.87
10992;BME280;5549;47.028;15.514;2024-02-26T07:05:35;95386.38;;;9.54;58.73
10992;BME280;5549;47.028;15.514;2024-02-26T07:08:04;95387.09;;;9.82;59.51
10992;BME280;5549;47.028;15.514;2024-02-26T07:10:31;95378.84;;;10.46;64.36
10992;BME280;5549;47.028;15.514;2024-02-26T07:12:59;95372.47;;;10.99;63.71
10992;BME280;5549;47.028;15.514;2024-02-26T07:15:29;95376.66;;;11.50;61.20
10992;BME280;5549;47.028;15.514;2024-02-26T07:17:57;95374.88;;;12.00;59.64
10992;BME280;5549;47.028;15.514;2024-02-26T07:20:30;95374.69;;;12.34;56.92
10992;BME280;5549;47.028;15.514;2024-02-26T07:22:58;95375.22;;;12.68;56.02
10992;BME280;5549;47.028;15.514;2024-02-26T07:25:28;95373.22;;;13.09;54.94
10992;BME280;5549;47.028;15.514;2024-02-26T07:28:04;95372.16;;;13.27;52.20
10992;BME280;5549;47.028;15.514;2024-02-26T07:30:31;95375.22;;;13.61;51.86
10992;BME280;5549;47.028;15.514;2024-02-26T07:33:01;95378.66;;;13.85;50.59
10992;BME280;5549;47.028;15.514;2024-02-26T07:35:30;95369.44;;;13.80;48.60
10992;BME280;5549;47.028;15.514;2024-02-26T07:37:59;95373.16;;;13.94;50.04
10992;BME280;5549;47.028;15.514;2024-02-26T07:40:29;95379.47;;;14.08;49.79
10992;BME280;5549;47.028;15.514;2024-02-26T07:42:57;95387.22;;;14.24;49.49
10992;BME280;5549;47.028;15.514;2024-02-26T07:45:24;95374.44;;;14.51;48.04
10992;BME280;5549;47.028;15.514;2024-02-26T07:47:54;95378.94;;;14.27;45.98
10992;BME280;5549;47.028;15.514;2024-02-26T07:50:22;95396.38;;;13.76;45.18
10992;BME280;5549;47.028;15.514;2024-02-26T07:52:51;95387.59;;;12.99;46.07
10992;BME280;5549;47.028;15.514;2024-02-26T07:55:22;95379.03;;;12.97;49.23
10992;BME280;5549;47.028;15.514;2024-02-26T07:57:49;95393.38;;;13.33;49.12
10992;BME280;5549;47.028;15.514;2024-02-26T08:00:17;95395.88;;;13.27;47.90
10992;BME280;5549;47.028;15.514;2024-02-26T08:02:49;95401.06;;;13.43;47.46
10992;BME280;5549;47.028;15.514;2024-02-26T08:05:21;95404.22;;;13.61;47.86
10992;BME280;5549;47.028;15.514;2024-02-26T08:07:51;95393.59;;;13.24;46.84
10992;BME280;5549;47.028;15.514;2024-02-26T08:10:19;95400.38;;;13.10;47.19
10992;BME280;5549;47.028;15.514;2024-02-26T08:12:49;95405.47;;;13.20;48.05
10992;BME280;5549;47.028;15.514;2024-02-26T08:15:20;95405.38;;;13.36;48.26
10992;BME280;5549;47.028;15.514;2024-02-26T08:17:51;95402.28;;;13.32;46.95
10992;BME280;5549;47.028;15.514;2024-02-26T08:20:23;95402.22;;;13.63;48.05
10992;BME280;5549;47.028;15.514;2024-02-26T08:22:52;95393.00;;;13.90;46.95
10992;BME280;5549;47.028;15.514;2024-02-26T08:25:19;95400.94;;;14.05;46.19
10992;BME280;5549;47.028;15.514;2024-02-26T08:27:49;95397.34;;;14.35;46.56
10992;BME280;5549;47.028;15.514;2024-02-26T08:30:17;95401.25;;;14.25;44.83
10992;BME280;5549;47.028;15.514;2024-02-26T08:32:45;95393.03;;;14.42;45.20
10992;BME280;5549;47.028;15.514;2024-02-26T08:35:16;95385.66;;;14.53;45.18
10992;BME280;5549;47.028;15.514;2024-02-26T08:37:46;95396.50;;;14.72;45.43
10992;BME280;5549;47.028;15.514;2024-02-26T08:40:17;95397.84;;;14.83;43.74
10992;BME280;5549;47.028;15.514;2024-02-26T08:42:47;95397.91;;;15.04;44.45
10992;BME280;5549;47.028;15.514;2024-02-26T08:45:15;95400.28;;;15.14;43.14
10992;BME280;5549;47.028;15.514;2024-02-26T08:47:45;95409.69;;;15.02;42.41
10992;BME280;5549;47.028;15.514;2024-02-26T08:50:14;95404.47;;;15.08;43.06
10992;BME280;5549;47.028;15.514;2024-02-26T08:52:41;95415.25;;;14.92;42.40
10992;BME280;5549;47.028;15.514;2024-02-26T08:55:12;95420.00;;;14.97;41.93
10992;BME280;5549;47.028;15.514;2024-02-26T08:57:41;95416.81;;;14.57;41.64
10992;BME280;5549;47.028;15.514;2024-02-26T09:00:12;95417.84;;;14.33;42.92
10992;BME280;5549;47.028;15.514;2024-02-26T09:02:41;95429.03;;;13.75;43.23
10992;BME280;5549;47.028;15.514;2024-02-26T09:05:10;95416.31;;;13.78;44.51
10992;BME280;5549;47.028;15.514;2024-02-26T09:07:38;95418.19;;;13.70;44.04
10992;BME280;5549;47.028;15.514;2024-02-26T09:10:07;95422.00;;;13.67;44.07
10992;BME280;5549;47.028;15.514;2024-02-26T09:12:38;95425.25;;;13.46;43.85
10992;BME280;5549;47.028;15.514;2024-02-26T09:15:10;95413.19;;;13.52;44.44
10992;BME280;5549;47.028;15.514;2024-02-26T09:17:38;95409.69;;;13.60;43.63
10992;BME280;5549;47.028;15.514;2024-02-26T09:20:08;95412.63;;;13.65;44.69
10992;BME280;5549;47.028;15.514;2024-02-26T09:22:36;95411.59;;;13.43;42.15
10992;BME280;5549;47.028;15.514;2024-02-26T09:25:05;95417.34;;;13.15;43.74
10992;BME280;5549;47.028;15.514;2024-02-26T09:27:35;95415.84;;;13.21;44.29
10992;BME280;5549;47.028;15.514;2024-02-26T09:30:04;95413.69;;;13.25;43.87
10992;BME280;5549;47.028;15.514;2024-02-26T09:32:33;95419.22;;;13.38;44.34
10992;BME280;5549;47.028;15.514;2024-02-26T09:35:00;95420.28;;;13.52;45.55
10992;BME280;5549;47.028;15.514;2024-02-26T09:37:31;95420.66;;;13.71;45.29
10992;BME280;5549;47.028;15.514;2024-02-26T09:40:01;95419.56;;;13.89;45.88
10992;BME280;5549;47.028;15.514;2024-02-26T09:42:31;95425.84;;;13.88;43.69
10992;BME280;5549;47.028;15.514;2024-02-26T09:45:06;95433.97;;;14.01;45.47
10992;BME280;5549;47.028;15.514;2024-02-26T09:47:39;95442.81;;;13.62;42.16
10992;BME280;5549;47.028;15.514;2024-02-26T09:50:12;95435.53;;;13.64;44.28
10992;BME280;5549;47.028;15.514;2024-02-26T09:52:41;95428.63;;;14.09;46.12
10992;BME280;5549;47.028;15.514;2024-02-26T09:55:10;95428.38;;;14.19;43.10
10992;BME280;5549;47.028;15.514;2024-02-26T09:57:45;95435.97;;;14.36;42.51
10992;BME280;5549;47.028;15.514;2024-02-26T10:00:18;95422.41;;;14.39;41.73
10992;BME280;5549;47.028;15.514;2024-02-26T10:02:48;95428.38;;;14.71;42.04
10992;BME280;5549;47.028;15.514;2024-02-26T10:05:17;95433.78;;;14.02;42.27
10992;BME280;5549;47.028;15.514;2024-02-26T10:07:46;95438.03;;;13.89;41.23
10992;BME280;5549;47.028;15.514;2024-02-26T10:10:14;95438.81;;;13.66;44.05
10992;BME280;5549;47.028;15.514;2024-02-26T10:12:42;95440.91;;;13.48;42.58
10992;BME280;5549;47.028;15.514;2024-02-26T10:15:12;95435.66;;;13.71;43.42
10992;BME280;5549;47.028;15.514;2024-02-26T10:17:42;95438.19;;;14.10;43.12
10992;BME280;5549;47.028;15.514;2024-02-26T10:20:15;95432.75;;;13.89;43.35
10992;BME280;5549;47.028;15.514;2024-02-26T10:22:43;95440.69;;;14.26;42.92
10992;BME280;5549;47.028;15.514;2024-02-26T10:25:14;95435.50;;;14.85;43.98
10992;BME280;5549;47.028;15.514;2024-02-26T10:27:44;95434.47;;;15.01;41.10
10992;BME280;5549;47.028;15.514;2024-02-26T10:30:19;95443.13;;;15.09;39.43
10992;BME280;5549;47.028;15.514;2024-02-26T10:32:50;95441.50;;;15.08;40.35
10992;BME280;5549;47.028;15.514;2024-02-26T10:35:19;95442.41;;;14.86;41.35
10992;BME280;5549;47.028;15.514;2024-02-26T10:37:50;95445.16;;;14.63;39.44
10992;BME280;5549;47.028;15.514;2024-02-26T10:40:18;95447.50;;;14.43;39.71
10992;BME280;5549;47.028;15.514;2024-02-26T10:42:45;95445.72;;;14.36;40.61
10992;BME280;5549;47.028;15.514;2024-02-26T10:45:15;95437.03;;;14.65;41.20
10992;BME280;5549;47.028;15.514;2024-02-26T10:47:46;95435.28;;;14.42;40.01
10992;BME280;5549;47.028;15.514;2024-02-26T10:50:14;95437.94;;;14.42;40.83
10992;BME280;5549;47.028;15.514;2024-02-26T10:52:44;95449.34;;;14.35;40.68
10992;BME280;5549;47.028;15.514;2024-02-26T10:55:17;95446.88;;;14.56;40.98
10992;BME280;5549;47.028;15.514;2024-02-26T10:57:46;95434.50;;;14.71;40.14
10992;BME280;5549;47.028;15.514;2024-02-26T11:00:16;95441.50;;;14.79;40.75
10992;BME280;5549;47.028;15.514;2024-02-26T11:02:45;95438.94;;;15.00;41.45
10992;BME280;5549;47.028;15.514;2024-02-26T11:05:14;95438.66;;;15.10;40.09
10992;BME280;5549;47.028;15.514;2024-02-26T11:07:46;95441.88;;;15.05;39.59
10992;BME280;5549;47.028;15.514;2024-02-26T11:10:16;95432.91;;;15.21;39.97
10992;BME280;5549;47.028;15.514;2024-02-26T11:12:46;95430.78;;;15.31;40.26
10992;BME280;5549;47.028;15.514;2024-02-26T11:15:16;95420.91;;;14.60;41.04
10992;BME280;5549;47.028;15.514;2024-02-26T11:17:44;95436.41;;;14.63;41.50
10992;BME280;5549;47.028;15.514;2024-02-26T11:20:16;95421.47;;;14.70;40.79
10992;BME280;5549;47.028;15.514;2024-02-26T11:22:48;95420.38;;;14.79;41.30
10992;BME280;5549;47.028;15.514;2024-02-26T11:25:18;95426.84;;;14.62;41.57
10992;BME280;5549;47.028;15.514;2024-02-26T11:27:52;95421.34;;;14.49;40.15
10992;BME280;5549;47.028;15.514;2024-02-26T11:30:22;95416.00;;;14.57;41.08
10992;BME280;5549;47.028;15.514;2024-02-26T11:32:53;95410.69;;;14.86;40.32
10992;BME280;5549;47.028;15.514;2024-02-26T11:35:24;95410.81;;;15.29;41.83
10992;BME280;5549;47.028;15.514;2024-02-26T11:37:57;95403.13;;;15.63;41.60
10992;BME280;5549;47.028;15.514;2024-02-26T11:40:25;95401.47;;;15.62;39.03
10992;BME280;5549;47.028;15.514;2024-02-26T11:42:55;95401.47;;;15.62;41.04
10992;BME280;5549;47.028;15.514;2024-02-26T11:45:56;95399.34;;;15.73;40.00
10992;BME280;5549;47.028;15.514;2024-02-26T11:48:25;95395.25;;;15.55;38.94
10992;BME280;5549;47.028;15.514;2024-02-26T11:50:58;95401.69;;;15.31;40.43
10992;BME280;5549;47.028;15.514;2024-02-26T11:53:29;95400.69;;;15.32;40.01
10992;BME280;5549;47.028;15.514;2024-02-26T11:56:22;95402.50;;;14.96;40.33
10992;BME280;5549;47.028;15.514;2024-02-26T11:59:00;95401.50;;;15.33;40.52
10992;BME280;5549;47.028;15.514;2024-02-26T12:01:45;95398.63;;;15.49;39.95
10992;BME280;5549;47.028;15.514;2024-02-26T12:04:19;95398.53;;;15.57;39.53
10992;BME280;5549;47.028;15.514;2024-02-26T12:06:56;95392.72;;;15.47;39.14
10992;BME280;5549;47.028;15.514;2024-02-26T12:09:34;95395.72;;;15.59;39.46
10992;BME280;5549;47.028;15.514;2024-02-26T12:12:06;95390.06;;;15.62;40.05
10992;BME280;5549;47.028;15.514;2024-02-26T12:14:37;95389.75;;;15.57;39.85
10992;BME280;5549;47.028;15.514;2024-02-26T12:17:05;95387.16;;;15.42;37.92
10992;BME280;5549;47.028;15.514;2024-02-26T12:19:35;95390.56;;;15.36;38.56
10992;BME280;5549;47.028;15.514;2024-02-26T12:22:07;95382.22;;;15.18;38.21
10992;BME280;5549;47.028;15.514;2024-02-26T12:24:37;95386.94;;;15.22;38.79
10992;BME280;5549;47.028;15.514;2024-02-26T12:27:04;95385.38;;;15.28;38.15
10992;BME280;5549;47.028;15.514;2024-02-26T12:29:34;95380.84;;;15.22;38.51
10992;BME280;5549;47.028;15.514;2024-02-26T12:32:03;95378.94;;;15.16;38.79
10992;BME280;5549;47.028;15.514;2024-02-26T12:34:31;95379.31;;;15.13;38.29
10992;BME280;5549;47.028;15.514;2024-02-26T12:36:59;95382.97;;;14.97;38.93
10992;BME280;5549;47.028;15.514;2024-02-26T12:39:28;95386.34;;;15.05;38.75
10992;BME280;5549;47.028;15.514;2024-02-26T12:41:58;95381.13;;;15.12;38.95
10992;BME280;5549;47.028;15.514;2024-02-26T12:44:28;95377.28;;;15.15;39.15
10992;BME280;5549;47.028;15.514;2024-02-26T12:47:00;95380.00;;;15.21;38.61
10992;BME280;5549;47.028;15.514;2024-02-26T12:49:29;95379.28;;;15.49;38.74
10992;BME280;5549;47.028;15.514;2024-02-26T12:51:56;95371.81;;;15.67;37.52
10992;BME280;5549;47.028;15.514;2024-02-26T12:54:30;95382.19;;;15.68;37.33
10992;BME280;5549;47.028;15.514;2024-02-26T12:57:00;95381.81;;;15.71;37.07
10992;BME280;5549;47.028;15.514;2024-02-26T12:59:31;95375.75;;;15.99;38.60
10992;BME280;5549;47.028;15.514;2024-02-26T13:01:59;95374.69;;;16.21;37.35
10992;BME280;5549;47.028;15.514;2024-02-26T13:04:29;95380.38;;;16.18;36.02
10992;BME280;5549;47.028;15.514;2024-02-26T13:06:57;95373.44;;;16.17;34.98
10992;BME280;5549;47.028;15.514;2024-02-26T13:09:33;95381.16;;;16.12;35.75
10992;BME280;5549;47.028;15.514;2024-02-26T13:12:07;95379.66;;;16.03;35.03
10992;BME280;5549;47.028;15.514;2024-02-26T13:14:37;95380.16;;;15.92;35.94
10992;BME280;5549;47.028;15.514;2024-02-26T13:17:04;95384.72;;;15.98;35.53
10992;BME280;5549;47.028;15.514;2024-02-26T13:19:32;95377.63;;;16.05;35.94